Time;durP1;ratioP1;P1;durP2;ratioP2;P2;SDS_P1;SDS_P2;PMS_P1;PMS_P2;Temp;Humidity;BMP_temperature;BMP_pressure;BME280_temperature;BME280_humidity;BME280_pressure;Samples;Min_cycle;Max_cycle;Signal;HPM_P1;HPM_P2
2022/04/22 00:00:24;;;;;;;13.80;12.00;;;;;;;11.69;60.28;99272.34;10242394;28;20059;-63
2022/04/22 00:05:26;;;;;;;13.75;12.00;;;;;;;11.63;60.21;99265.81;10237164;28;20083;-63
2022/04/22 00:10:28;;;;;;;14.20;12.38;;;;;;;11.57;60.82;99260.25;10235933;28;20130;-64
2022/04/22 00:15:30;;;;;;;14.70;12.25;;;;;;;11.56;60.64;99253.22;10237247;28;20133;-63
2022/04/22 00:20:31;;;;;;;14.57;13.07;;;;;;;11.52;60.55;99252.72;10234655;28;20766;-62
2022/04/22 00:25:32;;;;;;;15.00;12.07;;;;;;;11.38;61.29;99246.13;10236160;28;20055;-62
2022/04/22 00:30:34;;;;;;;16.65;14.68;;;;;;;11.37;61.53;99239.09;10233877;28;20137;-63
2022/04/22 00:35:35;;;;;;;14.98;12.57;;;;;;;11.40;61.14;99243.28;10234051;28;20055;-63
2022/04/22 00:40:37;;;;;;;15.25;12.30;;;;;;;11.38;60.57;99234.59;10236432;28;20129;-63
2022/04/22 00:45:39;;;;;;;16.38;14.27;;;;;;;11.30;61.39;99222.91;10235437;28;20629;-63
2022/04/22 00:50:40;;;;;;;15.38;12.98;;;;;;;11.33;60.99;99229.72;10234148;28;20142;-65
2022/04/22 00:55:44;;;;;;;17.10;13.73;;;;;;;11.26;61.33;99218.88;10232650;28;20042;-62
2022/04/22 01:00:46;;;;;;;16.37;14.70;;;;;;;11.21;61.46;99210.47;10236693;28;20737;-62
2022/04/22 01:11:10;;;;;;;15.23;13.32;;;;;;;11.07;61.95;99200.38;10228396;28;20514;-63
2022/04/22 01:16:11;;;;;;;16.10;14.40;;;;;;;11.09;62.32;99199.25;10236321;28;20047;-63
2022/04/22 01:21:13;;;;;;;16.27;13.93;;;;;;;11.06;62.34;99196.03;10239439;28;20065;-62
2022/04/22 01:26:15;;;;;;;18.50;14.95;;;;;;;11.11;62.65;99191.09;10232718;28;20101;-63
2022/04/22 01:31:16;;;;;;;14.88;13.23;;;;;;;11.08;62.70;99192.25;10236623;28;20054;-62
2022/04/22 01:36:17;;;;;;;16.88;15.07;;;;;;;11.01;62.56;99182.34;10233822;28;20046;-62
2022/04/22 01:41:19;;;;;;;16.63;14.18;;;;;;;10.75;62.79;99143.19;10248341;28;20051;-64
2022/04/22 01:46:20;;;;;;;17.92;13.23;;;;;;;10.77;63.01;99147.34;10232862;28;20046;-64
2022/04/22 01:51:21;;;;;;;16.70;14.73;;;;;;;10.81;62.96;99157.69;10232926;28;20051;-63
2022/04/22 01:56:23;;;;;;;18.70;14.73;;;;;;;10.79;63.31;99156.03;10227576;28;20053;-64
2022/04/22 02:01:24;;;;;;;16.65;14.43;;;;;;;10.85;63.53;99162.56;10234014;28;20051;-63
2022/04/22 02:06:26;;;;;;;16.08;14.30;;;;;;;10.84;63.97;99168.03;10244471;28;20568;-63
2022/04/22 02:11:28;;;;;;;17.33;14.52;;;;;;;10.79;64.62;99165.81;10231263;28;20062;-64
2022/04/22 02:16:29;;;;;;;16.38;13.90;;;;;;;10.82;64.15;99159.38;10234941;28;20077;-63
2022/04/22 02:21:31;;;;;;;16.60;14.38;;;;;;;10.82;64.31;99156.72;10228766;28;20452;-62
2022/04/22 02:31:53;;;;;;;17.27;14.68;;;;;;;10.64;64.91;99130.09;10229225;28;20049;-63
2022/04/22 02:36:54;;;;;;;18.42;14.85;;;;;;;10.67;65.09;99151.06;10227823;28;20591;-62
2022/04/22 02:47:16;;;;;;;17.20;14.85;;;;;;;10.63;65.14;99136.38;10230113;28;20051;-62
2022/04/22 02:52:17;;;;;;;18.77;15.40;;;;;;;10.52;65.44;99132.94;10231570;28;20059;-63
2022/04/22 02:57:18;;;;;;;19.65;16.35;;;;;;;10.51;65.61;99125.97;10229335;28;20791;-63
2022/04/22 03:02:20;;;;;;;17.73;15.82;;;;;;;10.24;65.38;99071.78;10238490;28;20138;-62
2022/04/22 03:07:21;;;;;;;18.08;15.07;;;;;;;10.49;65.58;99127.09;10232396;28;20047;-63
2022/04/22 03:12:23;;;;;;;18.58;15.88;;;;;;;10.42;65.84;99109.09;10238120;28;20730;-63
2022/04/22 03:17:25;;;;;;;20.60;17.63;;;;;;;10.44;66.12;99124.91;10241124;28;20061;-63
2022/04/22 03:22:26;;;;;;;16.17;14.45;;;;;;;10.42;65.58;99116.25;10238083;28;20175;-63
2022/04/22 03:27:27;;;;;;;18.73;16.52;;;;;;;10.33;65.75;99103.78;10236145;28;20047;-62
2022/04/22 03:32:29;;;;;;;16.92;15.13;;;;;;;10.37;65.11;99102.53;10235777;28;20078;-63
2022/04/22 03:37:31;;;;;;;19.20;15.75;;;;;;;10.31;65.89;99100.44;10238472;28;20058;-63
2022/04/22 03:42:32;;;;;;;20.13;16.00;;;;;;;10.24;66.20;99098.38;10241004;28;20062;-64
2022/04/22 03:47:34;;;;;;;16.30;14.60;;;;;;;10.18;65.96;99087.53;10236404;28;20677;-62
2022/04/22 03:52:35;;;;;;;16.73;14.35;;;;;;;10.21;66.02;99087.22;10243598;28;20490;-62
2022/04/22 04:02:56;;;;;;;17.35;14.57;;;;;;;10.30;65.70;99096.09;10243043;28;20067;-62
2022/04/22 04:07:58;;;;;;;19.33;17.25;;;;;;;10.25;65.64;99089.44;10253833;28;20047;-63
2022/04/22 04:18:19;;;;;;;18.13;16.15;;;;;;;10.20;66.12;99085.53;10241737;28;20133;-63
2022/04/22 04:23:21;;;;;;;17.48;15.63;;;;;;;10.21;66.02;99092.56;10251800;28;20051;-62
2022/04/22 04:28:23;;;;;;;19.23;16.13;;;;;;;10.19;66.23;99079.41;10243949;28;20055;-63
2022/04/22 04:33:25;;;;;;;17.40;15.52;;;;;;;10.19;65.71;99083.88;10243217;28;20047;-63
2022/04/22 04:38:27;;;;;;;18.90;15.88;;;;;;;10.15;65.66;99087.81;10240396;28;20061;-62
2022/04/22 04:43:29;;;;;;;17.25;15.43;;;;;;;10.14;65.85;99084.31;10254268;28;20075;-63
2022/04/22 04:48:30;;;;;;;19.90;15.57;;;;;;;10.18;65.92;99088.34;10239845;28;20628;-64
2022/04/22 04:53:32;;;;;;;18.80;15.80;;;;;;;10.14;65.96;99080.84;10217346;28;20051;-61
2022/04/22 04:58:34;;;;;;;19.60;16.50;;;;;;;10.14;66.03;99075.50;10223488;28;20129;-63
2022/04/22 05:03:35;;;;;;;16.50;14.32;;;;;;;10.26;65.66;99087.59;10230031;28;20087;-63
2022/04/22 05:08:37;;;;;;;15.45;13.88;;;;;;;10.26;65.70;99083.13;10243771;28;20589;-64
2022/04/22 05:13:38;;;;;;;17.83;15.60;;;;;;;10.30;65.38;99072.16;10227341;28;21251;-63
2022/04/22 05:18:40;;;;;;;18.70;15.07;;;;;;;10.27;65.85;99071.50;10222666;28;20052;-65
2022/04/22 05:23:41;;;;;;;18.35;14.70;;;;;;;10.31;65.81;99073.84;10220211;28;20054;-62
2022/04/22 05:28:43;;;;;;;14.85;12.85;;;;;;;10.36;65.33;99068.97;10220793;28;20813;-63
2022/04/22 05:33:44;;;;;;;17.13;14.93;;;;;;;10.46;65.77;99059.06;10223094;28;20510;-63
2022/04/22 05:38:46;;;;;;;15.02;13.50;;;;;;;10.61;65.21;99073.53;10221263;28;20596;-63
2022/04/22 05:43:47;;;;;;;16.95;13.05;;;;;;;10.60;65.48;99065.69;10217296;28;20091;-63
2022/04/22 05:48:48;;;;;;;14.65;13.00;;;;;;;10.70;65.05;99070.91;10217250;28;20050;-62
2022/04/22 05:53:50;;;;;;;14.25;12.70;;;;;;;10.78;64.40;99079.81;10217015;28;20055;-62
2022/04/22 05:58:52;;;;;;;15.80;12.52;;;;;;;10.87;64.69;99078.06;10221800;28;20039;-64
2022/04/22 06:03:53;;;;;;;14.38;12.88;;;;;;;11.00;64.36;99076.81;10219632;28;20070;-65
2022/04/22 06:14:15;;;;;;;13.70;12.23;;;;;;;11.51;63.86;99051.16;10215864;28;20498;-63
2022/04/22 06:19:18;;;;;;;15.73;11.68;;;;;;;11.75;62.44;99033.63;10217017;28;20051;-66
2022/04/22 06:24:20;;;;;;;12.90;11.50;;;;;;;12.05;60.92;99047.41;10233656;28;20058;-66
2022/04/22 06:29:22;;;;;;;12.23;10.95;;;;;;;12.01;60.36;99042.41;10215911;28;20043;-65
2022/04/22 06:34:24;;;;;;;12.90;10.98;;;;;;;12.14;60.54;99041.91;10216049;28;20561;-63
2022/04/22 06:45:46;;;;;;;12.25;10.98;;;;;;;12.26;59.59;99042.44;10218679;28;20051;-64
2022/04/22 06:50:10;;;;;;;11.15;10.05;;;;;;;12.50;59.40;99038.97;10188450;28;20417;-63
2022/04/22 06:55:13;;;;;;;10.93;9.88;;;;;;;12.60;58.70;99038.81;10222568;28;20051;-64
2022/04/22 07:00:16;;;;;;;11.20;10.10;;;;;;;12.77;58.47;99030.81;10226997;28;20054;-64
2022/04/22 07:05:18;;;;;;;11.57;10.38;;;;;;;12.88;57.81;99025.13;10222046;28;20051;-65
2022/04/22 07:10:20;;;;;;;11.07;9.32;;;;;;;13.04;57.71;99030.44;10220827;28;20051;-63
2022/04/22 07:15:21;;;;;;;11.10;9.30;;;;;;;13.36;57.29;99034.09;10222819;28;20499;-64
2022/04/22 07:20:23;;;;;;;9.20;8.23;;;;;;;13.50;55.40;99043.25;10226450;28;20924;-64
2022/04/22 07:25:26;;;;;;;7.15;6.45;;;;;;;13.58;54.54;99034.34;10225559;28;20059;-64
2022/04/22 07:30:30;;;;;;;7.70;6.90;;;;;;;13.73;53.82;99034.47;10228416;28;20140;-64
2022/04/22 07:35:32;;;;;;;7.15;6.45;;;;;;;13.92;52.94;99039.41;10228698;28;20073;-64
2022/04/22 07:40:34;;;;;;;7.70;6.85;;;;;;;14.01;51.57;99021.47;10224861;28;20566;-64
2022/04/22 07:50:58;;;;;;;6.95;6.25;;;;;;;14.41;51.31;99032.94;10223025;28;20058;-64
2022/04/22 07:56:00;;;;;;;7.78;6.95;;;;;;;14.52;49.43;99007.56;10215843;28;20528;-64
2022/04/22 08:01:01;;;;;;;7.45;6.65;;;;;;;14.53;49.56;99013.75;10222577;28;20781;-63
2022/04/22 08:06:04;;;;;;;7.03;6.43;;;;;;;14.57;49.62;99015.06;10220031;28;20047;-63
2022/04/22 08:11:05;;;;;;;7.05;6.43;;;;;;;14.76;48.95;99003.88;10251881;28;20418;-63
2022/04/22 08:16:07;;;;;;;6.57;5.97;;;;;;;14.94;47.92;99022.31;10224350;28;20051;-64
2022/04/22 08:21:10;;;;;;;6.95;5.88;;;;;;;15.03;48.27;99015.03;10223414;28;20054;-64
2022/04/22 08:26:12;;;;;;;7.22;6.50;;;;;;;15.42;47.46;99000.53;10226730;28;20069;-64
2022/04/22 08:31:14;;;;;;;7.20;6.50;;;;;;;15.65;46.75;99002.28;10217745;28;20061;-64
2022/04/22 08:36:15;;;;;;;7.40;6.60;;;;;;;15.78;45.67;98990.91;10223045;28;20055;-62
2022/04/22 08:41:20;;;;;;;6.60;5.88;;;;;;;16.04;45.39;98985.00;10225488;28;20130;-63
2022/04/22 08:51:44;;;;;;;6.25;5.53;;;;;;;16.53;43.58;98978.88;10225761;28;20062;-64
2022/04/22 08:56:48;;;;;;;10.00;5.88;;;;;;;16.69;41.71;98979.63;10217174;28;20544;-64
2022/04/22 09:01:49;;;;;;;5.87;5.37;;;;;;;16.90;42.12;98971.56;10227707;28;20055;-63
2022/04/22 09:06:52;;;;;;;5.88;5.38;;;;;;;17.02;41.55;98962.94;10219774;28;20055;-64
2022/04/22 09:12:05;;;;;;;6.68;6.05;;;;;;;16.99;41.22;98948.03;10219581;28;20056;-66
2022/04/22 09:17:07;;;;;;;5.87;5.27;;;;;;;17.41;40.96;98953.44;10220195;28;20142;-63
2022/04/22 09:22:08;;;;;;;6.05;5.43;;;;;;;17.72;40.57;98933.31;10215991;28;20055;-63
2022/04/22 09:27:09;;;;;;;7.00;5.25;;;;;;;18.08;40.26;98938.38;10222578;28;20051;-64
2022/04/22 09:32:11;;;;;;;5.97;5.25;;;;;;;18.46;38.95;98929.72;10218741;28;20059;-64
2022/04/22 09:42:40;;;;;;;6.65;6.07;;;;;;;19.08;37.43;98895.25;10218581;28;20666;-64
2022/04/22 09:47:41;;;;;;;6.82;5.55;;;;;;;19.05;37.72;98892.13;10217892;28;20058;-64
2022/04/22 09:52:47;;;;;;;5.45;4.95;;;;;;;19.57;37.48;98890.25;10216329;28;20054;-64
2022/04/22 09:57:56;;;;;;;5.72;5.13;;;;;;;19.98;35.03;98881.97;10216994;28;20055;-64
2022/04/22 10:02:58;;;;;;;6.63;6.00;;;;;;;20.35;34.94;98882.94;10214862;28;20051;-64
2022/04/22 10:08:03;;;;;;;5.10;4.70;;;;;;;20.58;34.69;98870.66;10217819;28;20523;-64
2022/04/22 10:13:05;;;;;;;7.10;4.55;;;;;;;21.14;33.76;98874.28;10216134;28;20080;-64
2022/04/22 10:18:12;;;;;;;5.22;4.72;;;;;;;21.41;33.08;98863.97;10218494;28;20066;-64
2022/04/22 10:23:13;;;;;;;5.00;4.32;;;;;;;23.69;29.46;98838.31;10219415;28;20206;-65
2022/04/22 10:28:17;;;;;;;6.93;5.43;;;;;;;26.45;25.34;98840.25;10216677;28;20058;-64
2022/04/22 10:33:23;;;;;;;4.20;3.80;;;;;;;27.62;23.44;98834.78;10219971;28;20053;-65
2022/04/22 10:38:38;;;;;;;6.30;4.22;;;;;;;25.24;26.09;98836.88;10213623;28;20189;-65
2022/04/22 10:43:41;;;;;;;5.25;3.70;;;;;;;24.26;26.89;98826.53;10215326;28;20051;-65
2022/04/22 10:49:12;;;;;;;4.50;4.07;;;;;;;25.48;25.10;98820.31;10216671;28;20057;-65
2022/04/22 10:54:13;;;;;;;5.68;3.67;;;;;;;29.76;20.77;98811.88;10218095;28;21338;-65
2022/04/22 10:59:15;;;;;;;4.43;4.00;;;;;;;29.61;20.69;98813.63;10213408;28;20055;-64
2022/04/22 11:04:26;;;;;;;3.40;3.17;;;;;;;30.67;19.41;98801.22;10214871;28;20153;-63
2022/04/22 11:09:30;;;;;;;5.10;2.85;;;;;;;31.83;18.13;98792.03;10212483;28;20054;-64
2022/04/22 11:14:44;;;;;;;3.47;3.17;;;;;;;32.15;17.30;98796.72;10214462;28;20422;-63
2022/04/22 11:19:59;;;;;;;3.20;2.60;;;;;;;33.50;16.56;98781.13;10226022;28;20137;-64
2022/04/22 11:25:01;;;;;;;3.00;2.70;;;;;;;32.97;16.71;98790.78;10216125;28;20059;-64
2022/04/22 11:30:02;;;;;;;7.72;3.20;;;;;;;34.34;15.44;98785.16;10221803;28;20113;-64
2022/04/22 11:35:07;;;;;;;4.30;2.70;;;;;;;33.72;15.15;98777.56;10221250;28;20057;-64
2022/04/22 11:40:09;;;;;;;2.30;2.08;;;;;;;34.24;15.09;98771.59;10222997;28;20777;-65
2022/04/22 11:45:17;;;;;;;2.60;2.40;;;;;;;30.26;18.55;98754.97;10227507;28;20193;-64
2022/04/22 11:50:21;;;;;;;2.90;2.58;;;;;;;30.63;18.41;98758.97;10222292;28;20559;-65
2022/04/22 11:55:23;;;;;;;7.15;3.28;;;;;;;28.55;19.79;98765.34;10221564;28;20511;-64
2022/04/22 12:05:48;;;;;;;6.40;3.63;;;;;;;27.92;20.65;98753.91;10222564;28;20101;-65
2022/04/22 12:10:51;;;;;;;5.32;3.15;;;;;;;27.35;21.67;98742.94;10221547;28;20055;-64
2022/04/22 12:15:54;;;;;;;5.47;2.90;;;;;;;27.12;22.11;98734.13;10220096;28;20078;-64
2022/04/22 12:21:06;;;;;;;6.60;2.50;;;;;;;26.27;22.62;98740.59;10221040;28;20133;-65
2022/04/22 12:26:20;;;;;;;3.33;2.70;;;;;;;26.70;22.22;98751.47;10223826;28;20093;-64
2022/04/22 12:31:22;;;;;;;4.95;3.17;;;;;;;25.92;23.28;98730.22;10244615;28;20062;-62
2022/04/22 12:36:24;;;;;;;3.20;2.90;;;;;;;25.68;24.01;98727.84;10229700;28;20047;-64
2022/04/22 12:41:26;;;;;;;;;;;;;;;25.67;23.90;98728.94;10221715;28;20055;-64
2022/04/22 12:52:11;;;;;;;3.00;2.45;;;;;;;25.72;24.65;98723.53;10221817;28;20114;-63
2022/04/22 12:57:24;;;;;;;3.00;2.33;;;;;;;25.74;23.96;98721.34;10222217;28;20047;-63
2022/04/22 13:02:32;;;;;;;2.58;2.38;;;;;;;25.25;24.76;98721.44;10220844;28;20403;-64
2022/04/22 13:07:52;;;;;;;5.28;3.28;;;;;;;24.79;24.54;98705.44;10222141;28;20058;-63
2022/04/22 13:12:53;;;;;;;2.85;2.40;;;;;;;24.86;25.08;98686.19;10219262;28;20414;-64
2022/04/22 13:17:56;;;;;;;6.25;3.20;;;;;;;24.48;25.01;98705.03;10219216;28;20063;-63
2022/04/22 13:22:57;;;;;;;2.80;2.47;;;;;;;24.43;25.87;98706.88;10220753;28;20047;-63
2022/04/22 13:27:59;;;;;;;4.45;2.80;;;;;;;24.45;25.98;98682.97;10218230;28;20413;-64
2022/04/22 13:33:00;;;;;;;4.00;3.60;;;;;;;24.22;25.60;98717.47;10219722;28;20057;-65
2022/04/22 13:38:01;;;;;;;3.30;2.55;;;;;;;23.74;26.21;98708.03;10228941;28;20607;-64
2022/04/22 13:43:03;;;;;;;3.83;3.17;;;;;;;23.63;26.24;98707.88;10221427;28;20051;-64
2022/04/22 13:53:25;;;;;;;3.75;2.78;;;;;;;24.03;26.42;98706.06;10218337;28;20054;-64
2022/04/22 13:58:26;;;;;;;3.15;2.38;;;;;;;23.97;26.34;98688.84;10216729;28;20059;-63
2022/04/22 14:03:29;;;;;;;3.30;2.75;;;;;;;23.61;26.61;98690.97;10215782;28;20053;-63
2022/04/22 14:08:30;;;;;;;3.42;2.63;;;;;;;23.45;27.27;98686.41;10222581;28;20057;-63
2022/04/22 14:13:32;;;;;;;3.75;2.75;;;;;;;23.10;26.99;98690.09;10219232;28;20048;-64
2022/04/22 14:18:35;;;;;;;4.55;3.80;;;;;;;22.85;27.77;98696.69;10242922;28;20070;-63
2022/04/22 14:23:36;;;;;;;4.05;3.65;;;;;;;22.65;28.37;98674.59;10220026;28;20051;-64
2022/04/22 14:28:38;;;;;;;6.38;3.65;;;;;;;22.74;28.82;98692.13;10221190;28;20078;-65
2022/04/22 14:33:40;;;;;;;3.47;3.17;;;;;;;22.70;28.84;98688.22;10214180;28;20060;-63
2022/04/22 14:38:42;;;;;;;4.40;3.97;;;;;;;22.76;28.27;98698.13;10216986;28;20133;-67
2022/04/22 14:43:43;;;;;;;7.25;4.28;;;;;;;22.20;29.00;98685.03;10237144;28;20174;-66
2022/04/22 14:48:45;;;;;;;4.03;3.42;;;;;;;21.99;29.73;98680.22;10220302;28;20397;-64
2022/04/22 14:53:46;;;;;;;4.40;3.92;;;;;;;21.75;29.74;98695.63;10221842;28;20565;-65
2022/04/22 14:58:49;;;;;;;4.40;4.00;;;;;;;21.26;30.45;98699.28;10217662;28;20051;-64
2022/04/22 15:03:50;;;;;;;4.43;4.03;;;;;;;21.49;30.08;98703.94;10220868;28;20435;-65
2022/04/22 15:08:52;;;;;;;4.97;4.57;;;;;;;21.47;30.48;98706.06;10229413;28;20114;-65
2022/04/22 15:13:55;;;;;;;5.57;5.00;;;;;;;21.27;30.63;98708.22;10224088;28;20055;-64
2022/04/22 15:24:17;;;;;;;6.10;4.00;;;;;;;21.21;30.91;98711.84;10228661;28;20937;-62
2022/04/22 15:29:20;;;;;;;4.40;4.03;;;;;;;20.88;30.54;98729.38;10242143;28;20051;-61
2022/04/22 15:34:21;;;;;;;5.93;3.88;;;;;;;20.75;30.96;98724.97;10227305;28;20142;-62
2022/04/22 15:39:22;;;;;;;4.25;3.58;;;;;;;20.64;31.47;98727.34;10212785;28;20055;-63
2022/04/22 15:44:26;;;;;;;7.78;5.60;;;;;;;20.40;31.87;98722.84;10219177;28;20065;-63
2022/04/22 15:49:28;;;;;;;7.03;5.53;;;;;;;20.23;32.32;98741.50;10222690;28;20736;-62
2022/04/22 15:54:30;;;;;;;9.65;8.07;;;;;;;20.27;32.44;98737.31;10223599;28;20058;-62
2022/04/22 15:59:32;;;;;;;5.97;5.40;;;;;;;19.94;32.45;98736.59;10222806;28;20087;-63
2022/04/22 16:04:34;;;;;;;5.75;5.22;;;;;;;19.89;32.87;98735.59;10215933;28;20136;-62
2022/04/22 16:09:36;;;;;;;6.60;5.35;;;;;;;19.91;32.83;98752.41;10214581;28;21198;-62
2022/04/22 16:19:58;;;;;;;5.32;4.82;;;;;;;19.65;33.75;98753.41;10213721;28;20047;-67
2022/04/22 16:24:59;;;;;;;7.03;6.32;;;;;;;19.46;34.04;98744.44;10215677;28;20055;-64
2022/04/22 16:30:00;;;;;;;7.38;6.45;;;;;;;19.42;34.44;98761.03;10211497;28;20584;-63
2022/04/22 16:35:02;;;;;;;6.53;5.93;;;;;;;19.31;34.41;98763.63;10217698;28;20083;-64
2022/04/22 16:40:08;;;;;;;7.45;6.70;;;;;;;19.19;34.78;98766.16;10223071;28;20133;-64
2022/04/22 16:45:12;;;;;;;7.80;6.40;;;;;;;19.09;35.34;98777.41;10219030;28;20605;-64
2022/04/22 16:50:15;;;;;;;8.07;6.00;;;;;;;19.12;35.45;98776.16;10222219;28;20062;-63
2022/04/22 16:55:16;;;;;;;9.67;6.30;;;;;;;19.04;35.59;98769.97;10222812;28;20063;-66
2022/04/22 17:00:18;;;;;;;6.40;5.75;;;;;;;18.97;36.09;98779.94;10220309;28;20306;-63
2022/04/22 17:05:19;;;;;;;7.05;6.32;;;;;;;18.95;35.96;98773.13;10221430;28;20061;-64
2022/04/22 17:10:22;;;;;;;9.32;6.55;;;;;;;18.88;36.53;98778.53;10220250;28;20101;-63
2022/04/22 17:26:07;;;;;;;7.30;6.70;;;;;;;18.61;37.58;98799.34;10220902;28;20058;-63
2022/04/22 17:31:09;;;;;;;8.45;7.55;;;;;;;18.35;37.74;98782.19;10221753;28;20246;-63
2022/04/22 17:36:11;;;;;;;8.98;8.10;;;;;;;18.30;38.14;98801.69;10216611;28;20520;-64
2022/04/22 17:41:13;;;;;;;10.50;9.38;;;;;;;18.28;38.33;98808.31;10221023;28;20058;-63
2022/04/22 17:46:14;;;;;;;9.07;7.85;;;;;;;18.15;39.13;98818.06;10216710;28;20062;-63
2022/04/22 17:51:15;;;;;;;9.27;8.13;;;;;;;18.04;39.33;98812.47;10217936;28;20713;-63
2022/04/22 17:56:17;;;;;;;10.00;8.57;;;;;;;18.05;39.15;98831.09;10231649;28;20146;-64
2022/04/22 18:01:18;;;;;;;10.85;9.48;;;;;;;17.91;39.68;98832.97;10230511;28;20134;-64
2022/04/22 18:06:21;;;;;;;8.45;7.72;;;;;;;17.82;40.03;98828.78;10220261;28;20074;-62
2022/04/22 18:11:22;;;;;;;9.23;8.32;;;;;;;17.73;39.43;98822.75;10221384;28;20238;-66
2022/04/22 18:16:24;;;;;;;9.85;8.90;;;;;;;17.80;40.10;98833.53;10222883;28;20062;-66
2022/04/22 18:21:26;;;;;;;9.45;8.65;;;;;;;17.77;40.82;98833.94;10224921;28;20065;-64
2022/04/22 18:26:27;;;;;;;10.65;9.65;;;;;;;17.51;41.34;98832.84;10215164;28;20137;-63
2022/04/22 18:31:29;;;;;;;10.50;9.57;;;;;;;17.58;40.57;98846.31;10218716;28;20911;-65
2022/04/22 18:36:30;;;;;;;11.90;10.70;;;;;;;17.28;41.98;98841.28;10211904;28;20065;-63
2022/04/22 18:41:32;;;;;;;12.38;11.07;;;;;;;17.16;41.56;98842.88;10218610;28;20055;-65
2022/04/22 18:46:33;;;;;;;10.98;9.88;;;;;;;17.12;41.81;98861.28;10223114;28;20480;-64
2022/04/22 18:51:35;;;;;;;10.82;9.85;;;;;;;17.06;42.46;98859.38;10223702;28;20406;-64
2022/04/22 18:56:37;;;;;;;10.90;9.90;;;;;;;16.89;42.86;98850.81;10221276;28;21162;-64
2022/04/22 19:01:38;;;;;;;12.68;11.48;;;;;;;16.86;43.66;98865.44;10222996;28;20047;-64
2022/04/22 19:06:40;;;;;;;14.32;11.75;;;;;;;16.64;43.82;98861.19;10220365;28;20066;-64
2022/04/22 19:11:43;;;;;;;11.02;10.07;;;;;;;16.65;44.54;98879.78;10221821;28;20062;-65
2022/04/22 19:16:44;;;;;;;10.93;10.00;;;;;;;16.65;45.37;98884.31;10220909;28;20051;-64
2022/04/22 19:21:46;;;;;;;13.45;12.25;;;;;;;16.57;44.88;98875.41;10223940;28;21949;-64
2022/04/22 19:26:47;;;;;;;11.95;10.95;;;;;;;16.41;45.81;98873.03;10220613;28;20058;-65
2022/04/22 19:31:48;;;;;;;12.23;11.02;;;;;;;16.40;46.35;98879.41;10221889;28;20059;-64
2022/04/22 19:42:10;;;;;;;11.50;10.38;;;;;;;16.15;47.30;98885.16;10220903;28;20421;-64
2022/04/22 19:47:11;;;;;;;10.45;9.57;;;;;;;16.13;47.52;98895.28;10223666;28;20050;-62
2022/04/22 19:52:12;;;;;;;10.20;9.32;;;;;;;16.10;48.06;98893.00;10222741;28;20462;-64
2022/04/22 19:57:14;;;;;;;11.90;10.68;;;;;;;15.99;48.38;98897.03;10219468;28;20059;-64
2022/04/22 20:02:16;;;;;;;12.70;11.60;;;;;;;15.65;48.19;98862.78;10212886;28;20102;-65
2022/04/22 20:07:18;;;;;;;12.07;10.98;;;;;;;15.85;48.17;98888.03;10238485;28;20065;-64
2022/04/22 20:12:19;;;;;;;12.50;11.40;;;;;;;15.70;48.17;98879.13;10240639;28;20050;-63
2022/04/22 20:17:21;;;;;;;11.57;10.52;;;;;;;15.74;48.49;98918.00;10239354;28;20051;-65
2022/04/22 20:22:22;;;;;;;11.30;10.40;;;;;;;15.67;49.16;98925.13;10238280;28;20065;-65
2022/04/22 20:27:25;;;;;;;11.30;10.40;;;;;;;15.63;49.33;98931.91;10241665;28;20292;-63
2022/04/22 20:32:27;;;;;;;10.82;9.93;;;;;;;15.54;48.90;98925.81;10238256;28;20675;-65
2022/04/22 20:42:48;;;;;;;10.52;9.52;;;;;;;15.43;46.66;98924.41;10238009;28;21353;-65
2022/04/22 20:47:50;;;;;;;9.45;8.55;;;;;;;15.35;46.34;98935.25;10238462;28;20053;-64
2022/04/22 20:58:13;;;;;;;11.57;8.80;;;;;;;15.19;46.05;98929.09;10235561;28;20598;-64
2022/04/22 21:03:14;;;;;;;9.38;8.48;;;;;;;15.27;45.77;98948.78;10239671;28;20535;-63
2022/04/22 21:08:16;;;;;;;11.73;9.80;;;;;;;15.20;45.07;98952.19;10238794;28;20093;-65
2022/04/22 21:13:18;;;;;;;9.48;8.52;;;;;;;15.03;45.13;98945.34;10242509;28;20554;-64
2022/04/22 21:18:19;;;;;;;8.60;7.50;;;;;;;14.97;45.06;98956.81;10248195;28;20068;-64
2022/04/22 21:23:21;;;;;;;9.65;8.85;;;;;;;14.85;45.68;98951.91;10239655;28;20051;-64
2022/04/22 21:28:22;;;;;;;9.40;8.55;;;;;;;14.91;45.82;98970.94;10237343;28;20061;-64
2022/04/22 21:33:28;;;;;;;10.40;9.23;;;;;;;14.71;46.10;98958.03;10249114;28;20110;-62
2022/04/22 21:38:30;;;;;;;9.52;8.73;;;;;;;14.68;46.09;98966.44;10237429;28;20047;-65
2022/04/22 21:43:31;;;;;;;9.15;8.35;;;;;;;14.60;46.58;98967.31;10238149;28;20126;-65
2022/04/22 21:48:32;;;;;;;8.32;7.63;;;;;;;14.54;46.73;98981.44;10232450;28;20134;-64
2022/04/22 21:53:34;;;;;;;9.60;8.52;;;;;;;14.48;46.48;98979.50;10239139;28;20430;-62
2022/04/22 21:58:35;;;;;;;9.15;8.30;;;;;;;14.43;46.83;98982.72;10237533;28;20166;-64
2022/04/22 22:03:38;;;;;;;7.97;7.28;;;;;;;14.32;47.24;98997.34;10254389;28;20102;-64
2022/04/22 22:08:40;;;;;;;9.10;8.30;;;;;;;14.27;47.27;98989.00;10236503;28;20051;-66
2022/04/22 22:13:43;;;;;;;8.48;7.68;;;;;;;14.25;47.04;98990.22;10235136;28;20051;-65
2022/04/22 22:18:44;;;;;;;8.93;7.75;;;;;;;14.20;47.84;98987.22;10231266;28;20058;-65
2022/04/22 22:23:46;;;;;;;9.20;8.27;;;;;;;14.05;47.30;98979.97;10231424;28;20097;-64
2022/04/22 22:28:47;;;;;;;8.10;7.40;;;;;;;14.02;48.20;98990.19;10230840;28;20047;-66
2022/04/22 22:33:48;;;;;;;8.68;7.80;;;;;;;13.96;48.01;98999.75;10239121;28;20066;-64
2022/04/22 22:38:50;;;;;;;9.23;8.43;;;;;;;13.95;48.06;99006.13;10233957;28;20065;-62
2022/04/22 22:43:52;;;;;;;8.60;7.65;;;;;;;13.73;48.43;98964.94;10234576;28;20051;-65
2022/04/22 22:48:53;;;;;;;8.70;7.72;;;;;;;13.90;48.94;98997.78;10235464;28;20634;-64
2022/04/22 22:53:55;;;;;;;8.90;8.07;;;;;;;13.74;48.60;98978.13;10233883;28;20074;-64
2022/04/22 22:58:59;;;;;;;9.20;8.40;;;;;;;13.66;48.19;98983.53;10249604;28;20138;-64
2022/04/22 23:04:00;;;;;;;9.88;9.07;;;;;;;13.73;48.54;98997.84;10234651;28;20051;-64
2022/04/22 23:09:02;;;;;;;9.98;9.07;;;;;;;13.65;48.56;98987.22;10236194;28;20418;-65
2022/04/22 23:14:03;;;;;;;9.63;8.73;;;;;;;13.60;48.69;98984.22;10241438;28;20051;-64
2022/04/22 23:19:05;;;;;;;10.40;9.48;;;;;;;13.58;48.87;99000.44;10252001;28;20051;-64
2022/04/22 23:24:07;;;;;;;15.95;9.35;;;;;;;13.54;49.43;98998.28;10232532;28;20480;-64
2022/04/22 23:29:08;;;;;;;9.70;8.82;;;;;;;13.50;48.98;98994.31;10238317;28;20050;-62
2022/04/22 23:34:10;;;;;;;10.18;9.27;;;;;;;13.38;49.65;98973.28;10237200;28;20051;-63
2022/04/22 23:39:11;;;;;;;10.10;9.20;;;;;;;13.39;49.73;98985.66;10238502;28;20054;-63
2022/04/22 23:44:15;;;;;;;10.50;9.60;;;;;;;13.22;49.70;98967.97;10242050;28;20055;-64
2022/04/22 23:49:17;;;;;;;10.90;9.93;;;;;;;13.29;49.61;98962.78;10239128;28;20042;-64
2022/04/22 23:54:19;;;;;;;10.40;9.40;;;;;;;13.20;50.16;98969.97;10237208;28;20268;-65
2022/04/22 23:59:20;;;;;;;11.00;10.00;;;;;;;13.07;50.49;98966.00;10244528;28;20059;-65
